sensor_id;sensor_type;location;lat;lon;timestamp;P1;durP1;ratioP1;P2;durP2;ratioP2
9256;SDS011;4665;51.368;6.782;2023-02-03T00:00:08;14.10;;;11.77;;
9256;SDS011;4665;51.368;6.782;2023-02-03T00:02:34;16.07;;;11.57;;
9256;SDS011;4665;51.368;6.782;2023-02-03T00:04:59;12.77;;;10.90;;
9256;SDS011;4665;51.368;6.782;2023-02-03T00:07:25;12.93;;;10.23;;
9256;SDS011;4665;51.368;6.782;2023-02-03T00:09:50;14.53;;;10.80;;
9256;SDS011;4665;51.368;6.782;2023-02-03T00:12:16;12.87;;;10.73;;
9256;SDS011;4665;51.368;6.782;2023-02-03T00:14:41;12.67;;;10.37;;
9256;SDS011;4665;51.368;6.782;2023-02-03T00:17:06;14.73;;;10.07;;
9256;SDS011;4665;51.368;6.782;2023-02-03T00:19:32;14.37;;;10.70;;
9256;SDS011;4665;51.368;6.782;2023-02-03T00:21:57;12.57;;;10.50;;
9256;SDS011;4665;51.368;6.782;2023-02-03T00:24:23;14.33;;;10.87;;
9256;SDS011;4665;51.368;6.782;2023-02-03T00:26:48;13.03;;;10.07;;
9256;SDS011;4665;51.368;6.782;2023-02-03T00:29:14;14.20;;;10.30;;
9256;SDS011;4665;51.368;6.782;2023-02-03T00:31:39;13.83;;;10.57;;
9256;SDS011;4665;51.368;6.782;2023-02-03T00:34:05;12.17;;;10.37;;
9256;SDS011;4665;51.368;6.782;2023-02-03T00:36:30;12.53;;;11.13;;
9256;SDS011;4665;51.368;6.782;2023-02-03T00:38:56;11.87;;;9.93;;
9256;SDS011;4665;51.368;6.782;2023-02-03T00:41:21;12.77;;;9.53;;
9256;SDS011;4665;51.368;6.782;2023-02-03T00:43:47;12.20;;;9.07;;
9256;SDS011;4665;51.368;6.782;2023-02-03T00:46:13;12.87;;;9.87;;
9256;SDS011;4665;51.368;6.782;2023-02-03T00:48:39;14.20;;;9.67;;
9256;SDS011;4665;51.368;6.782;2023-02-03T00:51:05;13.37;;;9.17;;
9256;SDS011;4665;51.368;6.782;2023-02-03T00:53:30;11.70;;;9.57;;
9256;SDS011;4665;51.368;6.782;2023-02-03T00:55:56;10.67;;;9.30;;
9256;SDS011;4665;51.368;6.782;2023-02-03T00:58:21;11.63;;;9.33;;
9256;SDS011;4665;51.368;6.782;2023-02-03T01:00:47;12.10;;;9.60;;
9256;SDS011;4665;51.368;6.782;2023-02-03T01:03:12;13.10;;;10.03;;
9256;SDS011;4665;51.368;6.782;2023-02-03T01:05:37;12.40;;;9.00;;
9256;SDS011;4665;51.368;6.782;2023-02-03T01:08:03;11.07;;;9.60;;
9256;SDS011;4665;51.368;6.782;2023-02-03T01:10:29;12.53;;;9.23;;
9256;SDS011;4665;51.368;6.782;2023-02-03T01:12:54;15.10;;;9.97;;
9256;SDS011;4665;51.368;6.782;2023-02-03T01:15:20;12.13;;;9.57;;
9256;SDS011;4665;51.368;6.782;2023-02-03T01:17:45;14.17;;;9.33;;
9256;SDS011;4665;51.368;6.782;2023-02-03T01:20:11;14.37;;;8.47;;
9256;SDS011;4665;51.368;6.782;2023-02-03T01:22:38;13.50;;;8.50;;
9256;SDS011;4665;51.368;6.782;2023-02-03T01:25:04;8.87;;;7.97;;
9256;SDS011;4665;51.368;6.782;2023-02-03T01:27:31;9.07;;;8.13;;
9256;SDS011;4665;51.368;6.782;2023-02-03T01:29:57;15.30;;;8.80;;
9256;SDS011;4665;51.368;6.782;2023-02-03T01:32:22;12.90;;;7.90;;
9256;SDS011;4665;51.368;6.782;2023-02-03T01:34:48;9.40;;;7.83;;
9256;SDS011;4665;51.368;6.782;2023-02-03T01:37:13;11.03;;;8.03;;
9256;SDS011;4665;51.368;6.782;2023-02-03T01:39:41;10.93;;;7.73;;
9256;SDS011;4665;51.368;6.782;2023-02-03T01:42:07;7.87;;;7.07;;
9256;SDS011;4665;51.368;6.782;2023-02-03T01:47:11;10.57;;;7.10;;
9256;SDS011;4665;51.368;6.782;2023-02-03T01:49:41;8.33;;;6.50;;
9256;SDS011;4665;51.368;6.782;2023-02-03T01:52:12;9.80;;;6.80;;
9256;SDS011;4665;51.368;6.782;2023-02-03T01:54:38;12.70;;;6.87;;
9256;SDS011;4665;51.368;6.782;2023-02-03T01:57:15;8.57;;;6.80;;
9256;SDS011;4665;51.368;6.782;2023-02-03T01:59:45;8.23;;;6.43;;
9256;SDS011;4665;51.368;6.782;2023-02-03T02:02:13;10.40;;;7.10;;
9256;SDS011;4665;51.368;6.782;2023-02-03T02:04:48;10.90;;;6.00;;
9256;SDS011;4665;51.368;6.782;2023-02-03T02:07:20;12.90;;;7.03;;
9256;SDS011;4665;51.368;6.782;2023-02-03T02:09:48;12.90;;;7.20;;
9256;SDS011;4665;51.368;6.782;2023-02-03T02:12:13;9.37;;;6.30;;
9256;SDS011;4665;51.368;6.782;2023-02-03T02:14:39;9.83;;;7.07;;
9256;SDS011;4665;51.368;6.782;2023-02-03T02:17:11;10.20;;;7.80;;
9256;SDS011;4665;51.368;6.782;2023-02-03T02:33:57;7.43;;;6.53;;
9256;SDS011;4665;51.368;6.782;2023-02-03T02:36:33;10.97;;;7.13;;
9256;SDS011;4665;51.368;6.782;2023-02-03T02:39:15;11.27;;;6.60;;
9256;SDS011;4665;51.368;6.782;2023-02-03T02:41:58;7.90;;;5.87;;
9256;SDS011;4665;51.368;6.782;2023-02-03T02:44:33;9.57;;;5.63;;
9256;SDS011;4665;51.368;6.782;2023-02-03T02:47:05;11.63;;;5.97;;
9256;SDS011;4665;51.368;6.782;2023-02-03T02:49:42;7.67;;;5.83;;
9256;SDS011;4665;51.368;6.782;2023-02-03T02:52:08;8.13;;;5.87;;
9256;SDS011;4665;51.368;6.782;2023-02-03T02:54:37;8.63;;;5.60;;
9256;SDS011;4665;51.368;6.782;2023-02-03T02:57:06;11.17;;;5.67;;
9256;SDS011;4665;51.368;6.782;2023-02-03T02:59:35;11.60;;;5.47;;
9256;SDS011;4665;51.368;6.782;2023-02-03T03:02:01;6.60;;;5.43;;
9256;SDS011;4665;51.368;6.782;2023-02-03T03:04:27;8.03;;;5.27;;
9256;SDS011;4665;51.368;6.782;2023-02-03T03:07:00;7.53;;;5.20;;
9256;SDS011;4665;51.368;6.782;2023-02-03T03:09:30;9.80;;;5.43;;
9256;SDS011;4665;51.368;6.782;2023-02-03T03:12:11;6.80;;;4.77;;
9256;SDS011;4665;51.368;6.782;2023-02-03T03:14:42;8.63;;;5.20;;
9256;SDS011;4665;51.368;6.782;2023-02-03T03:17:14;7.67;;;5.17;;
9256;SDS011;4665;51.368;6.782;2023-02-03T03:19:47;8.57;;;5.33;;
9256;SDS011;4665;51.368;6.782;2023-02-03T03:22:16;8.77;;;5.17;;
9256;SDS011;4665;51.368;6.782;2023-02-03T03:24:47;6.80;;;4.70;;
9256;SDS011;4665;51.368;6.782;2023-02-03T03:27:17;9.57;;;5.13;;
9256;SDS011;4665;51.368;6.782;2023-02-03T03:29:48;11.60;;;4.97;;
9256;SDS011;4665;51.368;6.782;2023-02-03T03:32:14;8.20;;;4.67;;
9256;SDS011;4665;51.368;6.782;2023-02-03T03:34:40;6.57;;;5.00;;
9256;SDS011;4665;51.368;6.782;2023-02-03T03:37:23;10.03;;;5.23;;
9256;SDS011;4665;51.368;6.782;2023-02-03T03:40:24;7.83;;;5.00;;
9256;SDS011;4665;51.368;6.782;2023-02-03T03:42:56;8.73;;;4.80;;
9256;SDS011;4665;51.368;6.782;2023-02-03T03:45:24;5.50;;;5.00;;
9256;SDS011;4665;51.368;6.782;2023-02-03T03:48:10;7.57;;;4.73;;
9256;SDS011;4665;51.368;6.782;2023-02-03T03:50:40;8.93;;;5.13;;
9256;SDS011;4665;51.368;6.782;2023-02-03T03:53:12;8.80;;;4.93;;
9256;SDS011;4665;51.368;6.782;2023-02-03T03:55:40;8.00;;;4.80;;
9256;SDS011;4665;51.368;6.782;2023-02-03T03:58:21;7.80;;;4.70;;
9256;SDS011;4665;51.368;6.782;2023-02-03T04:00:50;7.23;;;4.67;;
9256;SDS011;4665;51.368;6.782;2023-02-03T04:03:21;11.37;;;4.93;;
9256;SDS011;4665;51.368;6.782;2023-02-03T04:05:48;7.87;;;5.10;;
9256;SDS011;4665;51.368;6.782;2023-02-03T04:08:14;6.53;;;4.50;;
9256;SDS011;4665;51.368;6.782;2023-02-03T04:10:40;4.73;;;4.07;;
9256;SDS011;4665;51.368;6.782;2023-02-03T04:13:07;6.57;;;4.33;;
9256;SDS011;4665;51.368;6.782;2023-02-03T04:15:34;6.93;;;4.30;;
9256;SDS011;4665;51.368;6.782;2023-02-03T04:18:00;6.30;;;4.50;;
9256;SDS011;4665;51.368;6.782;2023-02-03T04:20:26;7.70;;;4.17;;
9256;SDS011;4665;51.368;6.782;2023-02-03T04:22:52;7.50;;;4.93;;
9256;SDS011;4665;51.368;6.782;2023-02-03T04:25:18;6.10;;;4.40;;
9256;SDS011;4665;51.368;6.782;2023-02-03T04:27:44;5.97;;;4.33;;
9256;SDS011;4665;51.368;6.782;2023-02-03T04:30:09;9.07;;;4.73;;
9256;SDS011;4665;51.368;6.782;2023-02-03T04:32:36;6.63;;;3.97;;
9256;SDS011;4665;51.368;6.782;2023-02-03T04:35:02;8.27;;;4.37;;
9256;SDS011;4665;51.368;6.782;2023-02-03T04:37:28;4.13;;;3.53;;
9256;SDS011;4665;51.368;6.782;2023-02-03T04:39:54;5.50;;;3.70;;
9256;SDS011;4665;51.368;6.782;2023-02-03T04:42:20;5.50;;;3.77;;
9256;SDS011;4665;51.368;6.782;2023-02-03T04:44:46;7.00;;;4.10;;
9256;SDS011;4665;51.368;6.782;2023-02-03T04:47:11;5.87;;;4.10;;
9256;SDS011;4665;51.368;6.782;2023-02-03T04:49:37;7.73;;;4.13;;
9256;SDS011;4665;51.368;6.782;2023-02-03T04:52:02;7.23;;;3.40;;
9256;SDS011;4665;51.368;6.782;2023-02-03T04:54:27;3.67;;;3.33;;
9256;SDS011;4665;51.368;6.782;2023-02-03T04:56:53;6.23;;;3.40;;
9256;SDS011;4665;51.368;6.782;2023-02-03T04:59:18;4.67;;;3.40;;
9256;SDS011;4665;51.368;6.782;2023-02-03T05:01:44;6.63;;;3.20;;
9256;SDS011;4665;51.368;6.782;2023-02-03T05:04:09;5.27;;;3.53;;
9256;SDS011;4665;51.368;6.782;2023-02-03T05:06:34;4.20;;;3.37;;
9256;SDS011;4665;51.368;6.782;2023-02-03T05:09:00;4.80;;;3.20;;
9256;SDS011;4665;51.368;6.782;2023-02-03T05:11:26;5.23;;;3.47;;
9256;SDS011;4665;51.368;6.782;2023-02-03T05:13:52;6.03;;;3.37;;
9256;SDS011;4665;51.368;6.782;2023-02-03T05:16:18;7.10;;;2.83;;
9256;SDS011;4665;51.368;6.782;2023-02-03T05:18:44;8.67;;;3.40;;
9256;SDS011;4665;51.368;6.782;2023-02-03T05:21:09;4.27;;;2.70;;
9256;SDS011;4665;51.368;6.782;2023-02-03T05:23:35;3.83;;;3.00;;
9256;SDS011;4665;51.368;6.782;2023-02-03T05:26:00;7.77;;;2.90;;
9256;SDS011;4665;51.368;6.782;2023-02-03T05:28:26;3.80;;;3.20;;
9256;SDS011;4665;51.368;6.782;2023-02-03T05:30:51;6.97;;;3.53;;
9256;SDS011;4665;51.368;6.782;2023-02-03T05:33:16;5.00;;;3.10;;
9256;SDS011;4665;51.368;6.782;2023-02-03T05:35:42;5.47;;;3.27;;
9256;SDS011;4665;51.368;6.782;2023-02-03T05:38:07;3.90;;;2.93;;
9256;SDS011;4665;51.368;6.782;2023-02-03T05:40:33;5.83;;;3.00;;
9256;SDS011;4665;51.368;6.782;2023-02-03T05:43:17;6.10;;;3.23;;
9256;SDS011;4665;51.368;6.782;2023-02-03T05:45:43;7.20;;;3.30;;
9256;SDS011;4665;51.368;6.782;2023-02-03T05:48:08;4.97;;;2.87;;
9256;SDS011;4665;51.368;6.782;2023-02-03T05:50:34;4.00;;;2.40;;
9256;SDS011;4665;51.368;6.782;2023-02-03T05:53:00;12.13;;;3.20;;
9256;SDS011;4665;51.368;6.782;2023-02-03T05:55:28;4.93;;;2.83;;
9256;SDS011;4665;51.368;6.782;2023-02-03T05:57:54;5.80;;;3.10;;
9256;SDS011;4665;51.368;6.782;2023-02-03T06:00:20;6.93;;;2.80;;
9256;SDS011;4665;51.368;6.782;2023-02-03T06:02:50;4.67;;;2.77;;
9256;SDS011;4665;51.368;6.782;2023-02-03T06:05:17;5.30;;;2.70;;
9256;SDS011;4665;51.368;6.782;2023-02-03T06:07:42;5.87;;;2.97;;
9256;SDS011;4665;51.368;6.782;2023-02-03T06:10:07;4.63;;;2.50;;
9256;SDS011;4665;51.368;6.782;2023-02-03T06:12:33;5.70;;;2.70;;
9256;SDS011;4665;51.368;6.782;2023-02-03T06:14:58;7.00;;;2.70;;
9256;SDS011;4665;51.368;6.782;2023-02-03T06:17:24;5.10;;;2.60;;
9256;SDS011;4665;51.368;6.782;2023-02-03T06:19:49;4.80;;;2.50;;
9256;SDS011;4665;51.368;6.782;2023-02-03T06:22:14;4.83;;;2.40;;
9256;SDS011;4665;51.368;6.782;2023-02-03T06:24:40;4.37;;;2.60;;
9256;SDS011;4665;51.368;6.782;2023-02-03T06:27:05;5.63;;;2.53;;
9256;SDS011;4665;51.368;6.782;2023-02-03T06:29:30;4.23;;;2.60;;
9256;SDS011;4665;51.368;6.782;2023-02-03T06:31:56;5.63;;;2.73;;
9256;SDS011;4665;51.368;6.782;2023-02-03T06:34:21;6.63;;;2.37;;
9256;SDS011;4665;51.368;6.782;2023-02-03T06:36:47;4.30;;;2.30;;
9256;SDS011;4665;51.368;6.782;2023-02-03T06:39:13;2.97;;;2.17;;
9256;SDS011;4665;51.368;6.782;2023-02-03T06:41:38;4.77;;;2.37;;
9256;SDS011;4665;51.368;6.782;2023-02-03T06:44:04;2.50;;;2.20;;
9256;SDS011;4665;51.368;6.782;2023-02-03T06:46:29;3.63;;;2.37;;
9256;SDS011;4665;51.368;6.782;2023-02-03T06:48:54;3.97;;;2.23;;
9256;SDS011;4665;51.368;6.782;2023-02-03T06:51:20;5.17;;;2.60;;
9256;SDS011;4665;51.368;6.782;2023-02-03T06:53:46;8.33;;;2.40;;
9256;SDS011;4665;51.368;6.782;2023-02-03T06:56:11;6.77;;;2.77;;
9256;SDS011;4665;51.368;6.782;2023-02-03T06:58:37;3.27;;;2.10;;
9256;SDS011;4665;51.368;6.782;2023-02-03T07:01:02;4.40;;;2.60;;
9256;SDS011;4665;51.368;6.782;2023-02-03T07:03:28;4.80;;;2.53;;
9256;SDS011;4665;51.368;6.782;2023-02-03T07:05:53;4.73;;;2.60;;
9256;SDS011;4665;51.368;6.782;2023-02-03T07:08:18;5.67;;;2.77;;
9256;SDS011;4665;51.368;6.782;2023-02-03T07:10:44;3.53;;;2.43;;
9256;SDS011;4665;51.368;6.782;2023-02-03T07:13:09;5.43;;;2.13;;
9256;SDS011;4665;51.368;6.782;2023-02-03T07:15:34;3.33;;;2.30;;
9256;SDS011;4665;51.368;6.782;2023-02-03T07:18:00;6.47;;;3.03;;
9256;SDS011;4665;51.368;6.782;2023-02-03T07:20:25;6.73;;;2.50;;
9256;SDS011;4665;51.368;6.782;2023-02-03T07:22:53;5.43;;;2.40;;
9256;SDS011;4665;51.368;6.782;2023-02-03T07:25:20;4.97;;;2.67;;
9256;SDS011;4665;51.368;6.782;2023-02-03T07:27:45;5.53;;;2.40;;
9256;SDS011;4665;51.368;6.782;2023-02-03T07:30:11;6.30;;;2.83;;
9256;SDS011;4665;51.368;6.782;2023-02-03T07:32:37;3.10;;;2.37;;
9256;SDS011;4665;51.368;6.782;2023-02-03T07:35:02;5.10;;;2.73;;
9256;SDS011;4665;51.368;6.782;2023-02-03T07:37:28;3.03;;;2.40;;
9256;SDS011;4665;51.368;6.782;2023-02-03T07:39:53;6.00;;;2.40;;
9256;SDS011;4665;51.368;6.782;2023-02-03T07:42:19;5.67;;;2.50;;
9256;SDS011;4665;51.368;6.782;2023-02-03T07:44:44;4.73;;;2.23;;
9256;SDS011;4665;51.368;6.782;2023-02-03T07:47:09;4.87;;;2.90;;
9256;SDS011;4665;51.368;6.782;2023-02-03T07:49:35;3.93;;;2.20;;
9256;SDS011;4665;51.368;6.782;2023-02-03T07:52:00;3.67;;;2.20;;
9256;SDS011;4665;51.368;6.782;2023-02-03T07:54:25;3.73;;;2.17;;
9256;SDS011;4665;51.368;6.782;2023-02-03T07:56:51;4.43;;;2.37;;
9256;SDS011;4665;51.368;6.782;2023-02-03T07:59:16;3.43;;;2.53;;
9256;SDS011;4665;51.368;6.782;2023-02-03T08:01:42;4.77;;;2.40;;
9256;SDS011;4665;51.368;6.782;2023-02-03T08:04:07;6.83;;;2.83;;
9256;SDS011;4665;51.368;6.782;2023-02-03T08:06:33;5.37;;;2.60;;
9256;SDS011;4665;51.368;6.782;2023-02-03T08:08:58;6.80;;;2.83;;
9256;SDS011;4665;51.368;6.782;2023-02-03T08:11:24;6.63;;;3.17;;
9256;SDS011;4665;51.368;6.782;2023-02-03T08:13:49;4.93;;;2.80;;
9256;SDS011;4665;51.368;6.782;2023-02-03T08:16:15;5.80;;;3.00;;
9256;SDS011;4665;51.368;6.782;2023-02-03T08:18:40;5.83;;;2.90;;
9256;SDS011;4665;51.368;6.782;2023-02-03T08:21:06;5.20;;;2.83;;
9256;SDS011;4665;51.368;6.782;2023-02-03T08:23:31;4.33;;;2.90;;
9256;SDS011;4665;51.368;6.782;2023-02-03T08:25:56;5.27;;;2.90;;
9256;SDS011;4665;51.368;6.782;2023-02-03T08:28:22;4.43;;;3.00;;
9256;SDS011;4665;51.368;6.782;2023-02-03T08:30:47;4.30;;;3.20;;
9256;SDS011;4665;51.368;6.782;2023-02-03T08:33:13;6.30;;;3.00;;
9256;SDS011;4665;51.368;6.782;2023-02-03T08:35:38;5.83;;;2.97;;
9256;SDS011;4665;51.368;6.782;2023-02-03T08:38:04;4.67;;;3.10;;
9256;SDS011;4665;51.368;6.782;2023-02-03T08:40:30;5.73;;;2.93;;
9256;SDS011;4665;51.368;6.782;2023-02-03T08:42:55;5.27;;;2.80;;
9256;SDS011;4665;51.368;6.782;2023-02-03T08:45:21;5.40;;;3.10;;
9256;SDS011;4665;51.368;6.782;2023-02-03T08:47:46;5.50;;;3.37;;
9256;SDS011;4665;51.368;6.782;2023-02-03T08:50:11;6.03;;;3.30;;
9256;SDS011;4665;51.368;6.782;2023-02-03T08:52:37;4.30;;;3.40;;
9256;SDS011;4665;51.368;6.782;2023-02-03T08:55:03;3.87;;;3.17;;
9256;SDS011;4665;51.368;6.782;2023-02-03T08:57:33;5.97;;;3.80;;
9256;SDS011;4665;51.368;6.782;2023-02-03T09:00:00;7.57;;;3.20;;
9256;SDS011;4665;51.368;6.782;2023-02-03T09:02:25;6.13;;;3.27;;
9256;SDS011;4665;51.368;6.782;2023-02-03T09:04:50;6.73;;;3.47;;
9256;SDS011;4665;51.368;6.782;2023-02-03T09:07:16;5.57;;;3.57;;
9256;SDS011;4665;51.368;6.782;2023-02-03T09:09:42;5.90;;;3.43;;
9256;SDS011;4665;51.368;6.782;2023-02-03T09:12:07;4.30;;;3.77;;
9256;SDS011;4665;51.368;6.782;2023-02-03T09:14:34;6.53;;;3.90;;
9256;SDS011;4665;51.368;6.782;2023-02-03T09:17:00;5.10;;;3.40;;
9256;SDS011;4665;51.368;6.782;2023-02-03T09:19:27;4.73;;;4.03;;
9256;SDS011;4665;51.368;6.782;2023-02-03T09:21:52;8.50;;;3.80;;
9256;SDS011;4665;51.368;6.782;2023-02-03T09:24:18;5.23;;;3.70;;
9256;SDS011;4665;51.368;6.782;2023-02-03T09:26:43;5.70;;;3.90;;
9256;SDS011;4665;51.368;6.782;2023-02-03T09:29:09;7.43;;;3.80;;
9256;SDS011;4665;51.368;6.782;2023-02-03T09:31:35;4.57;;;3.87;;
9256;SDS011;4665;51.368;6.782;2023-02-03T09:34:00;5.93;;;3.83;;
9256;SDS011;4665;51.368;6.782;2023-02-03T09:36:27;8.57;;;4.47;;
9256;SDS011;4665;51.368;6.782;2023-02-03T09:38:52;4.80;;;4.40;;
9256;SDS011;4665;51.368;6.782;2023-02-03T09:46:56;6.20;;;4.47;;
9256;SDS011;4665;51.368;6.782;2023-02-03T09:49:32;9.00;;;4.70;;
9256;SDS011;4665;51.368;6.782;2023-02-03T09:52:18;10.53;;;4.83;;
9256;SDS011;4665;51.368;6.782;2023-02-03T09:57:42;6.57;;;4.60;;
9256;SDS011;4665;51.368;6.782;2023-02-03T10:00:21;9.57;;;5.10;;
9256;SDS011;4665;51.368;6.782;2023-02-03T10:02:56;7.03;;;4.87;;
9256;SDS011;4665;51.368;6.782;2023-02-03T10:08:21;5.17;;;4.67;;
9256;SDS011;4665;51.368;6.782;2023-02-03T10:10:52;7.17;;;4.60;;
9256;SDS011;4665;51.368;6.782;2023-02-03T10:16:30;5.73;;;4.53;;
9256;SDS011;4665;51.368;6.782;2023-02-03T10:18:57;6.57;;;4.70;;
9256;SDS011;4665;51.368;6.782;2023-02-03T10:23:55;9.33;;;4.90;;
9256;SDS011;4665;51.368;6.782;2023-02-03T10:26:25;5.33;;;4.83;;
9256;SDS011;4665;51.368;6.782;2023-02-03T10:28:53;6.23;;;4.80;;
9256;SDS011;4665;51.368;6.782;2023-02-03T10:31:24;8.43;;;4.90;;
9256;SDS011;4665;51.368;6.782;2023-02-03T10:36:27;10.73;;;5.00;;
9256;SDS011;4665;51.368;6.782;2023-02-03T10:39:16;6.40;;;4.60;;
9256;SDS011;4665;51.368;6.782;2023-02-03T10:41:48;6.60;;;4.70;;
9256;SDS011;4665;51.368;6.782;2023-02-03T10:44:14;4.50;;;4.10;;
9256;SDS011;4665;51.368;6.782;2023-02-03T10:46:40;5.67;;;4.40;;
9256;SDS011;4665;51.368;6.782;2023-02-03T10:49:07;6.37;;;4.40;;
9256;SDS011;4665;51.368;6.782;2023-02-03T10:51:40;7.03;;;5.20;;
9256;SDS011;4665;51.368;6.782;2023-02-03T10:54:27;7.33;;;4.83;;
9256;SDS011;4665;51.368;6.782;2023-02-03T10:57:05;9.93;;;4.63;;
9256;SDS011;4665;51.368;6.782;2023-02-03T10:59:36;12.30;;;4.40;;
9256;SDS011;4665;51.368;6.782;2023-02-03T11:02:07;8.37;;;4.67;;
9256;SDS011;4665;51.368;6.782;2023-02-03T11:04:35;7.07;;;4.50;;
9256;SDS011;4665;51.368;6.782;2023-02-03T11:07:10;8.10;;;4.57;;
9256;SDS011;4665;51.368;6.782;2023-02-03T11:09:48;6.47;;;4.97;;
9256;SDS011;4665;51.368;6.782;2023-02-03T11:12:15;8.13;;;5.43;;
9256;SDS011;4665;51.368;6.782;2023-02-03T11:17:16;11.07;;;5.90;;
9256;SDS011;4665;51.368;6.782;2023-02-03T11:19:45;12.53;;;7.00;;
9256;SDS011;4665;51.368;6.782;2023-02-03T11:22:13;12.23;;;6.50;;
9256;SDS011;4665;51.368;6.782;2023-02-03T11:25:02;9.93;;;5.43;;
9256;SDS011;4665;51.368;6.782;2023-02-03T11:27:29;7.83;;;5.20;;
9256;SDS011;4665;51.368;6.782;2023-02-03T11:30:16;11.37;;;5.03;;
9256;SDS011;4665;51.368;6.782;2023-02-03T11:32:48;9.27;;;4.50;;
9256;SDS011;4665;51.368;6.782;2023-02-03T11:35:16;7.27;;;4.30;;
9256;SDS011;4665;51.368;6.782;2023-02-03T11:37:45;12.70;;;4.20;;
9256;SDS011;4665;51.368;6.782;2023-02-03T11:42:43;5.60;;;3.70;;
9256;SDS011;4665;51.368;6.782;2023-02-03T11:45:13;9.77;;;3.30;;
9256;SDS011;4665;51.368;6.782;2023-02-03T11:47:45;11.30;;;3.80;;
9256;SDS011;4665;51.368;6.782;2023-02-03T11:55:49;4.47;;;3.00;;
9256;SDS011;4665;51.368;6.782;2023-02-03T12:06:34;7.60;;;3.67;;
9256;SDS011;4665;51.368;6.782;2023-02-03T12:16:59;6.67;;;3.70;;
9256;SDS011;4665;51.368;6.782;2023-02-03T12:19:55;8.60;;;3.20;;
9256;SDS011;4665;51.368;6.782;2023-02-03T12:31:31;7.17;;;3.40;;
9256;SDS011;4665;51.368;6.782;2023-02-03T12:34:02;7.57;;;2.97;;
9256;SDS011;4665;51.368;6.782;2023-02-03T12:36:38;9.37;;;3.47;;
9256;SDS011;4665;51.368;6.782;2023-02-03T12:41:41;7.80;;;3.83;;
9256;SDS011;4665;51.368;6.782;2023-02-03T12:44:16;4.93;;;3.53;;
9256;SDS011;4665;51.368;6.782;2023-02-03T12:46:49;7.07;;;4.20;;
9256;SDS011;4665;51.368;6.782;2023-02-03T12:49:34;8.70;;;4.13;;
9256;SDS011;4665;51.368;6.782;2023-02-03T12:58:09;7.37;;;3.60;;
9256;SDS011;4665;51.368;6.782;2023-02-03T13:00:46;5.73;;;3.50;;
9256;SDS011;4665;51.368;6.782;2023-02-03T13:03:32;5.77;;;3.67;;
9256;SDS011;4665;51.368;6.782;2023-02-03T13:06:16;9.57;;;4.20;;
9256;SDS011;4665;51.368;6.782;2023-02-03T13:09:13;7.90;;;3.60;;
9256;SDS011;4665;51.368;6.782;2023-02-03T13:16:59;6.83;;;3.37;;
9256;SDS011;4665;51.368;6.782;2023-02-03T13:19:39;8.50;;;3.27;;
9256;SDS011;4665;51.368;6.782;2023-02-03T13:22:13;11.37;;;3.90;;
9256;SDS011;4665;51.368;6.782;2023-02-03T13:24:44;6.80;;;3.60;;
9256;SDS011;4665;51.368;6.782;2023-02-03T13:32:56;5.73;;;3.77;;
9256;SDS011;4665;51.368;6.782;2023-02-03T13:35:39;4.97;;;3.10;;
9256;SDS011;4665;51.368;6.782;2023-02-03T13:38:28;6.17;;;3.70;;
9256;SDS011;4665;51.368;6.782;2023-02-03T13:41:07;6.67;;;3.20;;
9256;SDS011;4665;51.368;6.782;2023-02-03T13:43:45;7.33;;;3.43;;
9256;SDS011;4665;51.368;6.782;2023-02-03T13:46:20;7.97;;;3.80;;
9256;SDS011;4665;51.368;6.782;2023-02-03T13:48:50;8.27;;;3.40;;
9256;SDS011;4665;51.368;6.782;2023-02-03T13:51:17;5.80;;;3.23;;
9256;SDS011;4665;51.368;6.782;2023-02-03T13:53:46;9.23;;;3.57;;
9256;SDS011;4665;51.368;6.782;2023-02-03T13:56:19;8.13;;;3.10;;
9256;SDS011;4665;51.368;6.782;2023-02-03T14:01:30;4.23;;;2.97;;
9256;SDS011;4665;51.368;6.782;2023-02-03T14:04:05;5.87;;;3.13;;
9256;SDS011;4665;51.368;6.782;2023-02-03T14:09:01;5.10;;;3.10;;
9256;SDS011;4665;51.368;6.782;2023-02-03T14:11:45;8.47;;;3.00;;
9256;SDS011;4665;51.368;6.782;2023-02-03T14:21:53;7.13;;;3.53;;
9256;SDS011;4665;51.368;6.782;2023-02-03T14:24:22;7.63;;;3.83;;
9256;SDS011;4665;51.368;6.782;2023-02-03T14:26:55;6.53;;;3.60;;
9256;SDS011;4665;51.368;6.782;2023-02-03T14:29:26;10.17;;;3.80;;
9256;SDS011;4665;51.368;6.782;2023-02-03T14:34:30;7.50;;;3.73;;
9256;SDS011;4665;51.368;6.782;2023-02-03T14:37:09;7.60;;;3.80;;
9256;SDS011;4665;51.368;6.782;2023-02-03T14:39:57;6.00;;;3.30;;
9256;SDS011;4665;51.368;6.782;2023-02-03T14:48:49;3.70;;;2.60;;
9256;SDS011;4665;51.368;6.782;2023-02-03T14:56:20;6.17;;;3.30;;
9256;SDS011;4665;51.368;6.782;2023-02-03T14:59:15;4.10;;;2.50;;
9256;SDS011;4665;51.368;6.782;2023-02-03T15:06:53;5.70;;;2.83;;
9256;SDS011;4665;51.368;6.782;2023-02-03T15:09:27;5.77;;;3.17;;
9256;SDS011;4665;51.368;6.782;2023-02-03T15:11:57;7.73;;;2.83;;
9256;SDS011;4665;51.368;6.782;2023-02-03T15:17:01;6.97;;;3.53;;
9256;SDS011;4665;51.368;6.782;2023-02-03T15:19:37;8.67;;;3.20;;
9256;SDS011;4665;51.368;6.782;2023-02-03T15:22:16;5.77;;;2.90;;
9256;SDS011;4665;51.368;6.782;2023-02-03T15:24:47;8.67;;;3.23;;
9256;SDS011;4665;51.368;6.782;2023-02-03T15:27:22;7.23;;;3.20;;
9256;SDS011;4665;51.368;6.782;2023-02-03T15:29:48;9.67;;;3.73;;
9256;SDS011;4665;51.368;6.782;2023-02-03T15:32:20;7.90;;;4.07;;
9256;SDS011;4665;51.368;6.782;2023-02-03T15:34:50;7.50;;;3.47;;
9256;SDS011;4665;51.368;6.782;2023-02-03T15:40:21;5.13;;;3.50;;
9256;SDS011;4665;51.368;6.782;2023-02-03T15:45:40;11.30;;;3.87;;
9256;SDS011;4665;51.368;6.782;2023-02-03T15:50:48;7.97;;;3.60;;
9256;SDS011;4665;51.368;6.782;2023-02-03T15:53:27;9.20;;;3.67;;
9256;SDS011;4665;51.368;6.782;2023-02-03T15:55:58;7.13;;;3.63;;
9256;SDS011;4665;51.368;6.782;2023-02-03T15:58:29;11.03;;;3.80;;
9256;SDS011;4665;51.368;6.782;2023-02-03T16:01:01;11.00;;;4.13;;
9256;SDS011;4665;51.368;6.782;2023-02-03T16:03:33;9.67;;;4.17;;
9256;SDS011;4665;51.368;6.782;2023-02-03T16:08:42;13.43;;;4.20;;
9256;SDS011;4665;51.368;6.782;2023-02-03T16:11:29;8.27;;;3.40;;
9256;SDS011;4665;51.368;6.782;2023-02-03T16:14:00;14.47;;;4.20;;
9256;SDS011;4665;51.368;6.782;2023-02-03T16:16:35;12.00;;;5.00;;
9256;SDS011;4665;51.368;6.782;2023-02-03T16:19:13;11.10;;;4.53;;
9256;SDS011;4665;51.368;6.782;2023-02-03T16:24:31;13.23;;;4.00;;
9256;SDS011;4665;51.368;6.782;2023-02-03T16:36:11;10.07;;;3.83;;
9256;SDS011;4665;51.368;6.782;2023-02-03T16:38:57;12.00;;;4.03;;
9256;SDS011;4665;51.368;6.782;2023-02-03T16:41:44;9.30;;;3.60;;
9256;SDS011;4665;51.368;6.782;2023-02-03T16:44:28;9.03;;;3.43;;
9256;SDS011;4665;51.368;6.782;2023-02-03T16:47:25;11.63;;;4.33;;
9256;SDS011;4665;51.368;6.782;2023-02-03T16:50:15;12.63;;;4.27;;
9256;SDS011;4665;51.368;6.782;2023-02-03T16:53:01;9.30;;;3.93;;
9256;SDS011;4665;51.368;6.782;2023-02-03T16:55:27;9.53;;;3.77;;
9256;SDS011;4665;51.368;6.782;2023-02-03T16:57:52;15.97;;;4.20;;
9256;SDS011;4665;51.368;6.782;2023-02-03T17:00:18;13.20;;;4.37;;
9256;SDS011;4665;51.368;6.782;2023-02-03T17:02:46;11.00;;;4.70;;
9256;SDS011;4665;51.368;6.782;2023-02-03T17:05:13;10.27;;;4.23;;
9256;SDS011;4665;51.368;6.782;2023-02-03T17:07:38;12.93;;;3.37;;
9256;SDS011;4665;51.368;6.782;2023-02-03T17:10:03;10.37;;;3.63;;
9256;SDS011;4665;51.368;6.782;2023-02-03T17:12:29;13.93;;;4.67;;
9256;SDS011;4665;51.368;6.782;2023-02-03T17:14:57;15.37;;;4.97;;
9256;SDS011;4665;51.368;6.782;2023-02-03T17:17:23;9.70;;;4.50;;
9256;SDS011;4665;51.368;6.782;2023-02-03T17:19:48;14.07;;;4.40;;
9256;SDS011;4665;51.368;6.782;2023-02-03T17:22:14;11.47;;;4.33;;
9256;SDS011;4665;51.368;6.782;2023-02-03T17:24:39;12.07;;;4.30;;
9256;SDS011;4665;51.368;6.782;2023-02-03T17:27:05;10.57;;;4.33;;
9256;SDS011;4665;51.368;6.782;2023-02-03T17:29:30;12.20;;;3.93;;
9256;SDS011;4665;51.368;6.782;2023-02-03T17:31:56;14.20;;;4.10;;
9256;SDS011;4665;51.368;6.782;2023-02-03T17:34:21;12.90;;;3.93;;
9256;SDS011;4665;51.368;6.782;2023-02-03T17:36:47;11.47;;;4.50;;
9256;SDS011;4665;51.368;6.782;2023-02-03T17:39:12;15.03;;;5.60;;
9256;SDS011;4665;51.368;6.782;2023-02-03T17:41:37;15.90;;;4.87;;
9256;SDS011;4665;51.368;6.782;2023-02-03T17:44:03;10.90;;;3.37;;
9256;SDS011;4665;51.368;6.782;2023-02-03T17:46:28;11.07;;;3.70;;
9256;SDS011;4665;51.368;6.782;2023-02-03T17:48:54;11.17;;;4.27;;
9256;SDS011;4665;51.368;6.782;2023-02-03T17:51:21;14.73;;;5.83;;